首页
METAR-TAF:

METAR-TAF

机场 :

克莱蒙费朗, 法国

纬度: 45-47N, 经度: 003-10E, 海拔: 332米

当前天气观测

该预报发布于34分钟前的14:00 UTC
风速12节,风向北转东北,在北转西北东北之间变化
温度 9°C
湿度 34%
气压 1022 hPa
能见度10公里或以上
1500米以下无云,无积雨云

METAR: LFLC 151400Z AUTO 02012KT 340V050 CAVOK 09/M06 Q1022 NOSIG

时间: 16:34 (14:34 UTC)

预报

该预报发布于3小时和34分钟前的11:00 UTC
预报有效从15日的 12点(UTC)到 16日的 12点(UTC)
风速11节,风向北转东北
能见度10公里或以上
1500米以下无云,无积雨云
短暂存在
从 15日的 14点(UTC)到 15日的 24点(UTC)
多云层高于6000英尺
几率 40% :
短暂存在
从 16日的 11点(UTC)到 16日的 12点(UTC)
少量云层高于5500英尺, 塔状积云.

TAF: LFLC 151100Z 1512/1612 02011KT CAVOK TEMPO 1514/1524 BKN060 PROB40 TEMPO 1611/1612 FEW055TCU

超过4000个机场的气象观测和天气预报(METAR&TAF报告)。

可查询的气象台以黄色和红色小点在地图上表示。

将鼠标移到小点上方,可查看气象台名称。

然后点击查看天气观测和预报。

如需切换地图:点击带黑十字的绿色按钮放大地图;点击带横线的绿色按钮缩小地图;或者点击绿色箭头查看邻近地区的地图。


METAR-TAF: